createdAt,value
2019-05-03T00:01:02.256Z,657.4
2019-05-03T00:02:04.954Z,657.3
2019-05-03T00:03:07.963Z,657.2
2019-05-03T00:04:12.186Z,657.6
2019-05-03T00:05:14.958Z,657.5
2019-05-03T00:06:17.112Z,658
2019-05-03T00:07:19.532Z,657.6
2019-05-03T00:08:23.693Z,658.1
2019-05-03T00:09:26.113Z,657.9
2019-05-03T00:10:28.274Z,657.6
2019-05-03T00:11:32.544Z,657.8
2019-05-03T00:12:35.928Z,658
2019-05-03T00:13:38.085Z,658.4
2019-05-03T00:14:42.322Z,658.5
2019-05-03T00:15:44.872Z,657.9
2019-05-03T00:16:47.722Z,658.6
2019-05-03T00:17:50.128Z,658.4
2019-05-03T00:18:54.121Z,658.4
2019-05-03T00:19:56.264Z,658.8
2019-05-03T00:20:58.138Z,658.7
2019-05-03T00:22:03.233Z,658.5
2019-05-03T00:23:05.642Z,658.7
2019-05-03T00:24:07.978Z,658.7
2019-05-03T00:25:12.701Z,659
2019-05-03T00:26:15.934Z,658.9
2019-05-03T00:27:18.070Z,659.2
2019-05-03T00:28:22.123Z,659.2
2019-05-03T00:29:24.548Z,659.4
2019-05-03T00:30:26.980Z,659.6
2019-05-03T00:31:29.408Z,659.5
2019-05-03T00:32:33.666Z,659.5
2019-05-03T00:33:35.558Z,659.8
2019-05-03T00:34:38.544Z,659.4
2019-05-03T00:35:42.863Z,659.7
2019-05-03T00:36:45.468Z,660.1
2019-05-03T00:37:48.242Z,659.9
2019-05-03T00:38:52.374Z,659.9
2019-05-03T00:39:55.054Z,659.9
2019-05-03T00:40:57.480Z,659.7
2019-05-03T00:41:59.632Z,660.1
2019-05-03T00:43:05.360Z,659.5
2019-05-03T00:44:07.802Z,660
2019-05-03T00:45:09.968Z,659.9
2019-05-03T00:46:14.508Z,659.8
2019-05-03T00:47:16.634Z,660.3
2019-05-03T00:48:19.058Z,660.5
2019-05-03T00:49:22.498Z,660.1
2019-05-03T00:50:24.514Z,660.1
2019-05-03T00:51:26.958Z,660.1
2019-05-03T00:52:32.292Z,660.3
2019-05-03T00:53:34.468Z,660.1
2019-05-03T00:54:36.659Z,660.2
2019-05-03T00:55:38.813Z,660.1
2019-05-03T00:57:47.023Z,660.5
2019-05-03T00:58:49.189Z,660.8
2019-05-03T00:59:53.374Z,660.7
2019-05-03T01:00:55.529Z,660.6
2019-05-03T01:01:57.944Z,660.6
2019-05-03T01:03:01.978Z,660.6
2019-05-03T01:04:04.552Z,661.2
2019-05-03T01:05:06.984Z,661.2
2019-05-03T01:06:11.315Z,661.2
2019-05-03T01:07:14.583Z,661.1
2019-05-03T01:08:17.006Z,660.9
2019-05-03T01:09:19.176Z,661.4
2019-05-03T01:10:23.513Z,661.5
2019-05-03T01:11:26.535Z,661.4
2019-05-03T01:12:28.970Z,661.1
2019-05-03T01:13:32.969Z,661.6
2019-05-03T01:14:37.027Z,661.5
2019-05-03T01:15:39.235Z,661.2
2019-05-03T01:16:43.603Z,661.8
2019-05-03T01:17:45.742Z,661.4
2019-05-03T01:18:47.627Z,662
2019-05-03T01:19:49.748Z,662.2
2019-05-03T01:20:53.997Z,662.1
2019-05-03T01:21:56.421Z,662.2
2019-05-03T01:22:58.757Z,662.4
2019-05-03T01:24:02.814Z,662.4
2019-05-03T01:25:04.963Z,661.9
2019-05-03T01:26:07.576Z,662.1
2019-05-03T01:27:10.164Z,662
2019-05-03T01:28:14.375Z,662
2019-05-03T01:29:16.793Z,662.2
2019-05-03T01:30:18.918Z,661.8
2019-05-03T01:32:27.879Z,662.3
2019-05-03T01:33:29.761Z,662
2019-05-03T01:35:37.161Z,662
2019-05-03T01:36:39.313Z,661.8
2019-05-03T01:37:43.602Z,662.1
2019-05-03T01:38:46.032Z,661.4
2019-05-03T01:39:48.449Z,661.9
2019-05-03T01:40:52.659Z,661.8
2019-05-03T01:41:55.097Z,661.4
2019-05-03T01:42:57.332Z,662.1
2019-05-03T01:43:59.518Z,661.9
2019-05-03T01:45:03.950Z,661.9
2019-05-03T01:46:06.982Z,662.2
2019-05-03T01:47:11.524Z,662.5
2019-05-03T01:48:14.837Z,662
2019-05-03T01:49:17.232Z,662.1
2019-05-03T01:50:19.667Z,661.9
2019-05-03T01:51:23.911Z,662.5
2019-05-03T01:52:26.072Z,662.1
2019-05-03T01:53:28.511Z,662.4
2019-05-03T01:54:32.584Z,662.3
2019-05-03T01:56:55.445Z,662.3
2019-05-03T01:57:49.161Z,662.4
2019-05-03T01:58:53.865Z,662.3
2019-05-03T01:59:56.303Z,662.2
2019-05-03T02:00:58.468Z,661.7
2019-05-03T02:02:02.753Z,662.2
2019-05-03T02:03:04.899Z,662.2
2019-05-03T02:04:07.534Z,662
2019-05-03T02:05:11.876Z,662
2019-05-03T02:06:13.854Z,662
2019-05-03T02:07:16.003Z,661.8
2019-05-03T02:08:18.437Z,662
2019-05-03T02:09:22.875Z,661.9
2019-05-03T02:10:25.924Z,662.5
2019-05-03T02:11:28.378Z,662.2
2019-05-03T02:12:32.645Z,662.4
2019-05-03T02:13:35.155Z,662.2
2019-05-03T02:14:37.699Z,662.2
2019-05-03T02:15:42.122Z,662.7
2019-05-03T02:16:45.007Z,662.5
2019-05-03T02:17:47.633Z,662.7
2019-05-03T02:18:51.675Z,663
2019-05-03T02:19:54.671Z,662.9
2019-05-03T02:20:56.808Z,662.5
2019-05-03T02:21:59.670Z,662.5
2019-05-03T02:23:03.401Z,662.7
2019-05-03T02:24:06.422Z,662.5
2019-05-03T02:25:08.842Z,662
2019-05-03T02:26:13.385Z,662.3
2019-05-03T02:27:15.816Z,661.8
2019-05-03T02:28:17.687Z,661.7
2019-05-03T02:29:21.818Z,662
2019-05-03T02:31:29.319Z,661.8
2019-05-03T02:32:34.270Z,661.9
2019-05-03T02:33:36.446Z,661.5
2019-05-03T02:34:38.869Z,661.6
2019-05-03T02:36:46.508Z,661.5
2019-05-03T02:37:49.228Z,661.7
2019-05-03T02:39:58.206Z,661.9
2019-05-03T02:43:11.496Z,662.4
2019-05-03T02:45:19.313Z,662.5
2019-05-03T02:46:21.490Z,662.5
2019-05-03T02:47:26.311Z,662.2
2019-05-03T02:48:30.847Z,662.3
2019-05-03T02:50:39.393Z,662.5
2019-05-03T02:51:41.819Z,662.4
2019-05-03T02:53:50.199Z,662.7
2019-05-03T02:54:54.920Z,662.4
2019-05-03T02:58:10.299Z,662.9
2019-05-03T02:59:15.411Z,662.8
2019-05-03T03:00:19.630Z,663
2019-05-03T03:01:22.296Z,662.8
2019-05-03T03:03:30.199Z,662.9
2019-05-03T03:04:32.088Z,662.6
2019-05-03T03:05:36.476Z,662.7
2019-05-03T03:06:39.136Z,662.4
2019-05-03T03:07:42.408Z,662.2
2019-05-03T03:09:49.510Z,662.3
2019-05-03T03:10:51.663Z,662.2
2019-05-03T03:12:59.558Z,662
2019-05-03T03:14:01.995Z,662
2019-05-03T03:16:09.620Z,662.4
2019-05-03T03:17:11.793Z,662.4
2019-05-03T03:19:19.314Z,662.7
2019-05-03T03:20:21.463Z,662.7
2019-05-03T03:22:30.190Z,662.9
2019-05-03T03:23:35.301Z,662.5
2019-05-03T03:24:39.509Z,662.6
2019-05-03T03:25:41.946Z,662.3
2019-05-03T03:27:49.073Z,662.7
2019-05-03T03:28:51.494Z,663.1
2019-05-03T03:30:59.769Z,662.8
2019-05-03T03:32:02.243Z,662.5
2019-05-03T03:34:11.345Z,662.7
2019-05-03T03:37:28.127Z,662.5
2019-05-03T03:38:30.280Z,662.4
2019-05-03T03:39:32.184Z,662.5
2019-05-03T03:41:40.595Z,662.2
2019-05-03T03:43:49.533Z,662.3
2019-05-03T03:44:52.722Z,662.1
2019-05-03T03:47:00.146Z,662.2
2019-05-03T03:49:09.403Z,661.6
2019-05-03T03:50:11.559Z,661.8
2019-05-03T03:52:19.833Z,661.4
2019-05-03T03:53:22.263Z,661
2019-05-03T03:55:29.870Z,661
2019-05-03T03:56:32.296Z,661.1
2019-05-03T03:59:08.761Z,660.9
2019-05-03T04:00:10.906Z,660.7
2019-05-03T04:02:19.753Z,660.5
2019-05-03T04:03:21.891Z,660.2
2019-05-03T04:05:29.803Z,660.4
2019-05-03T04:06:32.232Z,660.7
2019-05-03T04:08:39.874Z,660.1
2019-05-03T04:09:42.030Z,660.3
2019-05-03T04:11:50.388Z,660.1
2019-05-03T04:12:52.821Z,660.2
2019-05-03T04:14:59.951Z,659.7
2019-05-03T04:16:05.365Z,659.5
2019-05-03T04:17:10.102Z,659.6
2019-05-03T04:18:12.257Z,659.3
2019-05-03T04:19:17.132Z,659.6
2019-05-03T04:20:21.576Z,659.9
2019-05-03T04:22:29.449Z,659.3
2019-05-03T04:23:31.503Z,658.8
2019-05-03T04:25:39.578Z,658.9
2019-05-03T04:26:41.772Z,659
2019-05-03T04:28:49.383Z,659.1
2019-05-03T04:29:52.421Z,659.1
2019-05-03T04:31:59.824Z,658.6
2019-05-03T04:34:09.813Z,658.9
2019-05-03T04:35:16.103Z,659
2019-05-03T04:36:19.780Z,658.8
2019-05-03T04:37:22.235Z,658.6
2019-05-03T04:39:29.642Z,658.6
2019-05-03T04:40:32.069Z,658.2
2019-05-03T04:42:39.683Z,658
2019-05-03T04:43:42.673Z,658.1
2019-05-03T04:45:50.287Z,658.5
2019-05-03T04:47:58.617Z,658.2
2019-05-03T04:49:00.744Z,658.4
2019-05-03T04:51:09.375Z,657.7
2019-05-03T04:52:11.537Z,658
2019-05-03T04:54:20.125Z,657.5
2019-05-03T04:55:22.278Z,657.8
2019-05-03T04:59:40.132Z,657.1
2019-05-03T05:00:42.005Z,657.2
2019-05-03T05:02:51.116Z,656.9
2019-05-03T05:04:59.779Z,656.9
2019-05-03T05:06:02.387Z,656.7
2019-05-03T05:08:09.917Z,656.4
2019-05-03T05:09:12.341Z,656.4
2019-05-03T05:11:20.418Z,656.4
2019-05-03T05:13:29.238Z,656.2
2019-05-03T05:14:31.529Z,655.9
2019-05-03T05:18:15.725Z,656
2019-05-03T05:19:20.263Z,656.1
2019-05-03T05:20:22.410Z,656.3
2019-05-03T05:22:29.548Z,655.7
2019-05-03T05:23:32.779Z,656
2019-05-03T05:24:37.365Z,655.9
2019-05-03T05:25:40.008Z,655.9
2019-05-03T05:26:45.270Z,656
2019-05-03T05:28:54.866Z,655.2
2019-05-03T05:29:59.292Z,655.6
2019-05-03T05:31:01.710Z,655.3
2019-05-03T05:32:05.765Z,655.7
2019-05-03T05:33:08.185Z,655.4
2019-05-03T05:34:10.683Z,655.3
2019-05-03T05:35:14.838Z,655.3
2019-05-03T05:36:18.188Z,655
2019-05-03T05:37:21.351Z,654.9
2019-05-03T05:38:26.011Z,655
2019-05-03T05:39:28.429Z,655.2
2019-05-03T05:40:31.047Z,655.1
2019-05-03T05:41:35.831Z,655
2019-05-03T05:42:38.629Z,654.9
2019-05-03T05:43:41.223Z,655.3
2019-05-03T05:44:45.828Z,654.7
2019-05-03T05:45:47.986Z,654.7
2019-05-03T05:46:50.144Z,654.6
2019-05-03T05:47:54.627Z,654.6
2019-05-03T05:48:57.424Z,655.1
2019-05-03T05:49:59.900Z,654.7
2019-05-03T05:51:06.160Z,654.6
2019-05-03T05:52:08.568Z,654.8
2019-05-03T05:53:11.798Z,654.6
2019-05-03T05:54:16.287Z,654.4
2019-05-03T05:55:18.712Z,654.3
2019-05-03T05:56:20.588Z,654.2
2019-05-03T05:57:22.479Z,654.3
2019-05-03T05:59:29.628Z,654
2019-05-03T06:00:35.784Z,654
2019-05-03T06:01:40.155Z,654
2019-05-03T06:02:44.657Z,654
2019-05-03T06:03:47.468Z,653.8
2019-05-03T06:04:49.795Z,653.9
2019-05-03T06:05:51.951Z,654
2019-05-03T06:06:56.011Z,653.6
2019-05-03T06:07:57.874Z,653.4
2019-05-03T06:09:00.291Z,653.1
2019-05-03T06:10:02.713Z,653.4
2019-05-03T06:11:06.499Z,653.3
2019-05-03T06:12:09.010Z,653
2019-05-03T06:13:11.432Z,653
2019-05-03T06:14:15.762Z,653.1
2019-05-03T06:15:18.189Z,652.8
2019-05-03T06:16:21.372Z,652.7
2019-05-03T06:17:25.957Z,652.8
2019-05-03T06:18:28.573Z,652.4
2019-05-03T06:19:31.006Z,652.3
2019-05-03T06:20:35.344Z,651.9
2019-05-03T06:21:37.213Z,652
2019-05-03T06:22:40.440Z,652.1
2019-05-03T06:23:45.647Z,652
2019-05-03T06:24:48.551Z,651.8
2019-05-03T06:25:51.575Z,651.8
2019-05-03T06:26:56.066Z,651.7
2019-05-03T06:27:58.397Z,651.8
2019-05-03T06:29:01.095Z,651.6
2019-05-03T06:30:05.548Z,651.6
2019-05-03T06:31:08.733Z,651.8
2019-05-03T06:32:11.164Z,651.8
2019-05-03T06:33:15.354Z,651.7
2019-05-03T06:34:17.515Z,651.9
2019-05-03T06:35:19.936Z,651.5
2019-05-03T06:36:21.803Z,651.8
2019-05-03T06:37:26.153Z,651.5
2019-05-03T06:38:28.594Z,651.7
2019-05-03T06:39:30.984Z,651.8
2019-05-03T06:40:32.899Z,651.5
2019-05-03T06:41:36.997Z,651.8
2019-05-03T06:44:49.382Z,651.5
2019-05-03T06:45:54.659Z,651.9
2019-05-03T06:48:06.443Z,652.1
2019-05-03T06:51:22.288Z,651.7
2019-05-03T06:53:30.066Z,652
2019-05-03T06:56:45.446Z,652
2019-05-03T06:58:54.700Z,651.9
2019-05-03T06:59:57.253Z,652
2019-05-03T07:00:59.593Z,652.4
2019-05-03T07:02:02.023Z,652.4
2019-05-03T07:03:06.299Z,651.7
2019-05-03T07:04:09.079Z,652.2
2019-05-03T07:05:11.709Z,652
2019-05-03T07:07:19.316Z,652.6
2019-05-03T07:08:21.737Z,651.9
2019-05-03T07:09:25.993Z,652.1
2019-05-03T07:10:28.594Z,652.1
2019-05-03T07:11:31.044Z,651.6
2019-05-03T07:12:35.260Z,651.9
2019-05-03T07:13:38.723Z,651.8
2019-05-03T07:14:41.251Z,652.3
2019-05-03T07:15:45.302Z,651.7
2019-05-03T07:16:47.664Z,651.7
2019-05-03T07:17:49.864Z,651.6
2019-05-03T07:19:56.658Z,651.5
2019-05-03T07:20:58.936Z,651.4
2019-05-03T07:22:01.689Z,651.7
2019-05-03T07:23:06.266Z,651.2
2019-05-03T07:24:08.414Z,651.2
2019-05-03T07:25:10.572Z,651.1
2019-05-03T07:26:15.722Z,651
2019-05-03T07:27:18.292Z,650.6
2019-05-03T07:28:20.374Z,650.8
2019-05-03T07:29:22.508Z,651.1
2019-05-03T07:30:55.427Z,650.9
2019-05-03T07:31:58.021Z,651.2
2019-05-03T07:33:00.530Z,650.8
2019-05-03T07:34:05.056Z,650.6
2019-05-03T07:35:07.815Z,650.5
2019-05-03T07:36:10.550Z,650.8
2019-05-03T07:37:14.493Z,650.3
2019-05-03T07:38:16.937Z,650.4
2019-05-03T07:39:19.420Z,650.6
2019-05-03T07:40:21.815Z,650.5
2019-05-03T07:42:29.361Z,650.8
2019-05-03T07:43:31.903Z,650.8
2019-05-03T07:45:39.482Z,650.4
2019-05-03T07:46:41.640Z,650.3
2019-05-03T07:47:45.731Z,650
2019-05-03T07:48:48.163Z,650.1
2019-05-03T07:49:50.579Z,650.2
2019-05-03T07:50:55.128Z,650.1
2019-05-03T07:51:57.543Z,649.7
2019-05-03T07:52:59.899Z,649.8
2019-05-03T07:54:05.118Z,649.9
2019-05-03T07:55:07.543Z,649.8
2019-05-03T07:56:09.961Z,650
2019-05-03T07:57:12.114Z,649.6
2019-05-03T07:59:19.518Z,649.8
2019-05-03T08:00:21.728Z,649.8
2019-05-03T08:01:26.755Z,650.2
2019-05-03T08:02:29.669Z,650.2
2019-05-03T08:03:32.091Z,650.1
2019-05-03T08:04:36.743Z,650
2019-05-03T08:05:39.364Z,650.1
2019-05-03T08:06:41.994Z,650
2019-05-03T08:08:50.406Z,649.8
2019-05-03T08:09:53.019Z,650.1
2019-05-03T08:10:57.002Z,650.2
2019-05-03T08:11:59.425Z,650.2
2019-05-03T08:13:01.585Z,650.5
2019-05-03T08:14:05.922Z,650.4
2019-05-03T08:15:08.352Z,650.6
2019-05-03T08:16:10.785Z,650.3
2019-05-03T08:17:15.155Z,650.8
2019-05-03T08:18:18.241Z,650.2
2019-05-03T08:20:26.802Z,650.6
2019-05-03T08:21:30.345Z,650.7
2019-05-03T08:22:34.403Z,650.2
2019-05-03T08:23:37.582Z,650.5
2019-05-03T08:24:39.730Z,650.4
2019-05-03T08:25:42.159Z,650
2019-05-03T08:26:46.775Z,650.6
2019-05-03T08:27:48.930Z,650.3
2019-05-03T08:28:51.351Z,650.3
2019-05-03T08:29:53.218Z,650
2019-05-03T08:30:56.322Z,649.9
2019-05-03T08:31:58.468Z,650.1
2019-05-03T08:33:00.884Z,649.9
2019-05-03T08:35:09.893Z,649.2
2019-05-03T08:36:12.308Z,649.4
2019-05-03T08:37:16.795Z,649.3
2019-05-03T08:38:19.140Z,649.6
2019-05-03T08:39:21.570Z,649.3
2019-05-03T08:40:25.975Z,649.6
2019-05-03T08:41:28.124Z,649.4
2019-05-03T08:42:31.005Z,649.8
2019-05-03T08:43:32.891Z,649.5
2019-05-03T08:44:38.900Z,649.6
2019-05-03T08:45:41.330Z,649.7
2019-05-03T08:47:49.275Z,649.9
2019-05-03T08:48:51.694Z,650.1
2019-05-03T08:49:56.331Z,649.4
2019-05-03T08:50:58.476Z,649.9
2019-05-03T08:52:00.894Z,649.9
2019-05-03T08:54:09.266Z,649.9
2019-05-03T08:55:11.691Z,649.8
2019-05-03T08:56:16.087Z,649.6
2019-05-03T08:57:18.273Z,649.7
2019-05-03T08:58:20.714Z,649.9
2019-05-03T09:00:28.122Z,649.9
2019-05-03T09:01:30.544Z,649.8
2019-05-03T09:02:35.052Z,649.3
2019-05-03T09:05:48.443Z,649.5
2019-05-03T09:06:50.870Z,649.4
2019-05-03T09:07:55.091Z,649.5
2019-05-03T09:08:59.264Z,649.5
2019-05-03T09:10:01.146Z,649
2019-05-03T09:12:08.934Z,648.4
2019-05-03T09:13:11.352Z,648.7
2019-05-03T09:14:15.874Z,648.6
2019-05-03T09:15:18.300Z,648.6
2019-05-03T09:16:21.056Z,648.8
2019-05-03T09:17:25.115Z,648.6
2019-05-03T09:18:28.092Z,648.8
2019-05-03T09:19:30.524Z,648.2
2019-05-03T09:21:40.115Z,647.8
2019-05-03T09:22:42.746Z,647.8
2019-05-03T09:23:46.822Z,647.6
2019-05-03T09:24:48.973Z,648
2019-05-03T09:25:51.392Z,647.6
2019-05-03T09:26:56.530Z,647.8
2019-05-03T09:27:58.953Z,647.3
2019-05-03T09:29:01.382Z,647.2
2019-05-03T09:30:07.224Z,647.2
2019-05-03T09:31:09.798Z,647.6
2019-05-03T09:32:11.673Z,647.3
2019-05-03T09:33:16.426Z,647.3
2019-05-03T09:34:18.858Z,647.2
2019-05-03T09:36:27.110Z,646.9
2019-05-03T09:37:29.520Z,646.9
2019-05-03T09:38:31.671Z,647
2019-05-03T09:39:35.917Z,646.9
2019-05-03T09:40:38.074Z,646.8
2019-05-03T09:41:41.829Z,646.5
2019-05-03T09:42:47.013Z,646.8
2019-05-03T09:43:49.918Z,647.1
2019-05-03T09:46:00.784Z,646.4
2019-05-03T09:47:05.383Z,646.4
2019-05-03T09:48:10.118Z,646.8
2019-05-03T09:50:17.680Z,646.7
2019-05-03T09:51:20.122Z,646.2
2019-05-03T09:52:24.907Z,646.6
2019-05-03T09:53:28.854Z,646.1
2019-05-03T09:54:30.994Z,646.4
2019-05-03T09:55:35.260Z,646.5
2019-05-03T09:56:44.604Z,646.4
2019-05-03T09:57:46.794Z,646.3
2019-05-03T09:58:49.219Z,646.3
2019-05-03T10:00:57.502Z,646.3
2019-05-03T10:01:59.951Z,646
2019-05-03T10:03:02.313Z,645.7
2019-05-03T10:04:06.930Z,645.9
2019-05-03T10:05:09.964Z,645.6
2019-05-03T10:07:18.336Z,645.9
2019-05-03T10:08:20.496Z,645.5
2019-05-03T10:09:22.921Z,645.5
2019-05-03T10:10:26.802Z,645.4
2019-05-03T10:11:28.956Z,645.6
2019-05-03T10:12:31.384Z,645.6
2019-05-03T10:14:39.000Z,645.4
2019-05-03T10:15:41.427Z,645.3
2019-05-03T10:17:49.453Z,645.5
2019-05-03T10:18:51.613Z,645.5
2019-05-03T10:20:25.744Z,645.4
2019-05-03T10:21:28.476Z,645.6
2019-05-03T10:22:30.894Z,645.7
2019-05-03T10:24:40.052Z,645.7
2019-05-03T10:25:42.470Z,646.3
2019-05-03T10:26:47.005Z,645.5
2019-05-03T10:27:49.334Z,645.8
2019-05-03T10:28:51.763Z,645.6
2019-05-03T10:31:00.358Z,646.2
2019-05-03T10:32:02.752Z,646.1
2019-05-03T10:34:10.480Z,646.5
2019-05-03T10:36:20.055Z,646.2
2019-05-03T10:37:24.610Z,646
2019-05-03T10:38:27.044Z,646.2
2019-05-03T10:39:30.099Z,646.3
2019-05-03T10:40:32.505Z,646.1
2019-05-03T10:41:36.782Z,646.5
2019-05-03T10:42:39.884Z,646.3
2019-05-03T10:43:41.778Z,646.1
2019-05-03T10:45:49.794Z,646.5
2019-05-03T10:46:51.682Z,646.2
2019-05-03T10:47:53.822Z,646.2
2019-05-03T10:48:57.872Z,646
2019-05-03T10:50:00.023Z,646.1
2019-05-03T10:51:04.538Z,646.3
2019-05-03T10:52:09.342Z,646.3
2019-05-03T10:53:11.488Z,646.4
2019-05-03T10:54:16.044Z,646.2
2019-05-03T10:55:18.472Z,646.4
2019-05-03T10:57:26.768Z,646.5
2019-05-03T10:58:29.375Z,646.6
2019-05-03T10:59:31.802Z,646.6
2019-05-03T11:01:05.411Z,646.8
2019-05-03T11:02:07.574Z,646.5
2019-05-03T11:03:10.202Z,646.5
2019-05-03T11:04:12.373Z,646.6
2019-05-03T11:05:16.584Z,646.6
2019-05-03T11:06:19.026Z,646.7
2019-05-03T11:07:21.455Z,646.7
2019-05-03T11:08:23.625Z,647
2019-05-03T11:09:27.934Z,646.5
2019-05-03T11:10:31.151Z,646.8
2019-05-03T11:11:35.616Z,647.3
2019-05-03T11:12:38.244Z,646.8
2019-05-03T11:13:40.661Z,646.8
2019-05-03T11:14:45.382Z,646.8
2019-05-03T11:15:49.997Z,646.6
2019-05-03T11:16:51.886Z,646.5
2019-05-03T11:18:08.993Z,646.5
2019-05-03T11:19:10.601Z,647.1
2019-05-03T11:22:26.420Z,647.2
2019-05-03T11:23:28.052Z,646.9
2019-05-03T11:24:29.961Z,647
2019-05-03T11:25:34.929Z,647.3
2019-05-03T11:26:37.356Z,646.7
2019-05-03T11:27:40.252Z,647.8
2019-05-03T11:28:44.718Z,647.5
2019-05-03T11:29:47.014Z,647.5
2019-05-03T11:31:56.474Z,647.3
2019-05-03T11:32:58.909Z,647.4
2019-05-03T11:34:01.346Z,647.2
2019-05-03T11:35:05.980Z,647.1
2019-05-03T11:36:08.125Z,647.7
2019-05-03T11:37:11.150Z,647.1
2019-05-03T11:38:16.661Z,647.5
2019-05-03T11:39:19.094Z,647
2019-05-03T11:40:21.554Z,647.1
2019-05-03T11:42:29.543Z,647.4
2019-05-03T11:43:31.392Z,647.5
2019-05-03T11:44:33.831Z,647.8
2019-05-03T11:45:37.942Z,647.8
2019-05-03T11:46:41.156Z,647.8
2019-05-03T11:48:50.583Z,647.5
2019-05-03T11:49:55.115Z,647.6
2019-05-03T11:50:57.274Z,647.3
2019-05-03T11:52:00.844Z,647.4
2019-05-03T11:53:06.035Z,647.3
2019-05-03T11:54:08.644Z,647
2019-05-03T11:56:16.780Z,647.6
2019-05-03T11:57:18.948Z,647.5
2019-05-03T11:58:21.385Z,647.5
2019-05-03T11:59:25.349Z,647.2
2019-05-03T12:00:30.374Z,647.5
2019-05-03T12:01:32.720Z,647.8
2019-05-03T12:02:35.539Z,647.4
2019-05-03T12:03:37.987Z,647.5
2019-05-03T12:04:40.426Z,647.6
2019-05-03T12:05:42.846Z,647.5
2019-05-03T12:06:47.494Z,647.4
2019-05-03T12:07:49.378Z,647.7
2019-05-03T12:08:51.524Z,648
2019-05-03T12:09:56.295Z,648
2019-05-03T12:13:09.213Z,647.9
2019-05-03T12:14:10.851Z,647.8
2019-05-03T12:15:14.967Z,647.9
2019-05-03T12:18:29.822Z,648.2
2019-05-03T12:21:55.613Z,647.9
2019-05-03T12:23:03.182Z,648.1
2019-05-03T12:24:13.296Z,647.7
2019-05-03T12:25:25.523Z,647.8
2019-05-03T12:27:36.878Z,648.2
2019-05-03T12:28:39.320Z,648
2019-05-03T12:29:41.765Z,647.9
2019-05-03T12:30:46.950Z,648.3
2019-05-03T12:31:49.584Z,648.5
2019-05-03T12:32:52.000Z,648
2019-05-03T12:34:59.584Z,647.7
2019-05-03T12:36:01.774Z,648
2019-05-03T12:38:09.762Z,647.4
2019-05-03T12:40:17.821Z,648
2019-05-03T12:41:20.484Z,648
2019-05-03T12:42:26.234Z,648
2019-05-03T12:43:28.851Z,647.7
2019-05-03T12:44:31.910Z,648.4
2019-05-03T12:45:36.772Z,648.2
2019-05-03T12:46:40.006Z,648.1
2019-05-03T12:47:42.610Z,648
2019-05-03T12:48:46.919Z,648.1
2019-05-03T12:49:49.743Z,648.3
2019-05-03T12:50:55.341Z,648.2
2019-05-03T12:51:57.726Z,648.4
2019-05-03T12:53:00.170Z,648.3
2019-05-03T12:55:09.425Z,648
2019-05-03T12:57:18.074Z,648.5
2019-05-03T12:58:21.056Z,648.5
2019-05-03T12:59:22.953Z,648.7
2019-05-03T13:00:27.264Z,648.7
2019-05-03T13:02:36.224Z,648.4
2019-05-03T13:03:40.155Z,648.8
2019-05-03T13:05:49.869Z,649
2019-05-03T13:06:52.025Z,648.7
2019-05-03T13:07:56.180Z,648.9
2019-05-03T13:08:58.717Z,648.9
2019-05-03T13:10:01.155Z,648.9
2019-05-03T13:11:05.512Z,649.1
2019-05-03T13:12:07.990Z,648.9
2019-05-03T13:13:10.159Z,649
2019-05-03T13:14:12.597Z,649.1
2019-05-03T13:15:16.136Z,649.6
2019-05-03T13:16:18.568Z,648.9
2019-05-03T13:17:20.991Z,649.5
2019-05-03T13:19:29.324Z,649.1
2019-05-03T13:20:32.023Z,649.1
2019-05-03T13:21:36.529Z,649.2
2019-05-03T13:22:38.990Z,649.9
2019-05-03T13:23:41.157Z,649.2
2019-05-03T13:24:45.616Z,649.7
2019-05-03T13:25:47.786Z,649.6
2019-05-03T13:26:50.385Z,649.6
2019-05-03T13:27:54.750Z,649.7
2019-05-03T13:30:05.096Z,649.7
2019-05-03T13:31:08.174Z,650.4
2019-05-03T13:32:10.364Z,650.1
2019-05-03T13:33:12.525Z,650.8
2019-05-03T13:34:16.874Z,650.5
2019-05-03T13:35:19.283Z,650.6
2019-05-03T13:36:21.736Z,650.8
2019-05-03T13:38:29.628Z,650.5
2019-05-03T13:39:31.800Z,650.6
2019-05-03T13:41:39.902Z,651
2019-05-03T13:43:49.188Z,650.7
2019-05-03T13:44:51.080Z,650.8
2019-05-03T13:47:00.131Z,651.2
2019-05-03T13:49:10.935Z,651.1
2019-05-03T13:50:15.566Z,651
2019-05-03T13:51:18.172Z,651.5
2019-05-03T13:52:20.891Z,651.7
2019-05-03T13:53:25.944Z,652
2019-05-03T13:54:28.503Z,652.4
2019-05-03T13:55:30.635Z,652.2
2019-05-03T13:56:35.147Z,652
2019-05-03T13:57:37.424Z,652.2
2019-05-03T13:58:39.492Z,652
2019-05-03T13:59:41.915Z,652.1
2019-05-03T14:00:47.423Z,651.9
2019-05-03T14:01:49.869Z,651.9
2019-05-03T14:02:52.584Z,651.6
2019-05-03T14:03:56.001Z,651.6
2019-05-03T14:04:58.153Z,651.6
2019-05-03T14:06:01.247Z,651.4
2019-05-03T14:07:05.352Z,651.3
2019-05-03T14:08:07.487Z,651.7
2019-05-03T14:09:09.911Z,651.9
2019-05-03T14:10:12.360Z,651.4
2019-05-03T14:11:16.941Z,651.8
2019-05-03T14:12:19.543Z,651.5
2019-05-03T14:13:21.970Z,651.7
2019-05-03T14:14:26.441Z,651.6
2019-05-03T14:15:28.884Z,651.6
2019-05-03T14:16:31.055Z,651.7
2019-05-03T14:17:32.659Z,651.5
2019-05-03T14:18:37.255Z,651.7
2019-05-03T14:19:39.413Z,651.5
2019-05-03T14:20:41.590Z,651.7
2019-05-03T14:21:43.770Z,651.8
2019-05-03T14:22:45.941Z,651.8
2019-05-03T14:23:48.124Z,651.6
2019-05-03T14:24:50.575Z,651.5
2019-05-03T14:25:52.741Z,651.3
2019-05-03T14:26:57.132Z,651.4
2019-05-03T14:30:10.514Z,651.4
2019-05-03T14:31:14.909Z,651.6
2019-05-03T14:33:24.818Z,651.5
2019-05-03T14:34:27.673Z,651.4
2019-05-03T14:35:30.103Z,651.9
2019-05-03T14:36:32.254Z,652.2
2019-05-03T14:38:39.666Z,652.3
2019-05-03T14:39:42.095Z,652.6
2019-05-03T14:40:48.880Z,652.5
2019-05-03T14:41:50.744Z,652.4
2019-05-03T14:45:09.467Z,652
2019-05-03T14:46:11.973Z,651.8
2019-05-03T14:47:16.897Z,651.9
2019-05-03T14:48:20.134Z,651.8
2019-05-03T14:49:22.827Z,651.8
2019-05-03T14:50:27.165Z,651.7
2019-05-03T14:51:29.606Z,651.9
2019-05-03T14:52:32.213Z,652
2019-05-03T14:53:36.678Z,651.9
2019-05-03T14:54:38.830Z,651.8
2019-05-03T14:55:40.725Z,652
2019-05-03T14:56:45.321Z,651.7
2019-05-03T14:57:50.099Z,651.8
2019-05-03T14:59:21.854Z,651.4
2019-05-03T15:00:26.541Z,651.5
2019-05-03T15:01:28.710Z,651.6
2019-05-03T15:03:36.772Z,651.8
2019-05-03T15:04:39.215Z,651.4
2019-05-03T15:05:41.570Z,651.5
2019-05-03T15:07:51.226Z,651.8
2019-05-03T15:08:55.637Z,651.9
2019-05-03T15:09:58.666Z,652.2
2019-05-03T15:11:00.815Z,652.2
2019-05-03T15:12:05.254Z,652.1
2019-05-03T15:13:07.845Z,652.4
2019-05-03T15:14:10.370Z,652.7
2019-05-03T15:15:14.484Z,652.7
2019-05-03T15:16:17.213Z,652.7
2019-05-03T15:17:19.651Z,652.8
2019-05-03T15:18:21.837Z,652.8
2019-05-03T15:20:29.657Z,653.1
2019-05-03T15:21:32.097Z,653.2
2019-05-03T15:22:36.605Z,653.3
2019-05-03T15:23:38.757Z,653.2
2019-05-03T15:24:41.553Z,653.2
2019-05-03T15:26:50.511Z,653.3
2019-05-03T15:27:52.403Z,653.3
2019-05-03T15:30:00.017Z,653.2
2019-05-03T15:31:04.423Z,653.2
2019-05-03T15:32:09.370Z,652.9
2019-05-03T15:33:11.802Z,653
2019-05-03T15:34:16.164Z,653
2019-05-03T15:35:18.323Z,653.1
2019-05-03T15:36:20.477Z,653
2019-05-03T15:37:22.620Z,653.1
2019-05-03T15:38:25.986Z,653.1
2019-05-03T15:39:28.582Z,653.1
2019-05-03T15:40:30.725Z,653.4
2019-05-03T15:41:35.376Z,653.1
2019-05-03T15:42:39.017Z,653.3
2019-05-03T15:43:42.551Z,653.3
2019-05-03T15:44:47.396Z,653.4
2019-05-03T15:45:49.903Z,652.9
2019-05-03T15:46:54.431Z,653.2
2019-05-03T15:47:58.367Z,653.5
2019-05-03T15:49:00.904Z,652.9
2019-05-03T15:50:05.719Z,653.1
2019-05-03T15:51:08.579Z,652.8
2019-05-03T15:52:11.939Z,653.1
2019-05-03T15:54:19.332Z,653.4
2019-05-03T15:55:21.774Z,653.5
2019-05-03T15:56:27.290Z,653.3
2019-05-03T15:57:59.042Z,653.6
2019-05-03T15:59:01.303Z,653.7
2019-05-03T16:00:05.434Z,653.7
2019-05-03T16:01:07.943Z,653.6
2019-05-03T16:02:10.375Z,653.7
2019-05-03T16:03:15.049Z,653.9
2019-05-03T16:04:17.475Z,653.6
2019-05-03T16:05:19.925Z,653.7
2019-05-03T16:06:22.410Z,653.7
2019-05-03T16:07:26.661Z,653.7
2019-05-03T16:08:29.275Z,653.4
2019-05-03T16:09:31.426Z,653.6
2019-05-03T16:10:37.831Z,653.2
2019-05-03T16:11:39.988Z,653.6
2019-05-03T16:12:42.416Z,653.9